sensor_id;sensor_type;location;lat;lon;timestamp;pressure;altitude;pressure_sealevel;temperature;humidity
10115;BME280;5097;43.260;27.812;2023-07-16T00:01:48;100383.66;;;22.18;98.87
10115;BME280;5097;43.260;27.812;2023-07-16T00:04:32;100361.44;;;22.34;97.02
10115;BME280;5097;43.260;27.812;2023-07-16T00:07:16;100376.84;;;22.42;96.63
10115;BME280;5097;43.260;27.812;2023-07-16T00:10:00;100374.97;;;22.24;96.76
10115;BME280;5097;43.260;27.812;2023-07-16T00:12:47;100379.19;;;22.27;97.73
10115;BME280;5097;43.260;27.812;2023-07-16T00:15:33;100369.97;;;22.12;98.64
10115;BME280;5097;43.260;27.812;2023-07-16T00:18:17;100373.03;;;22.17;97.80
10115;BME280;5097;43.260;27.812;2023-07-16T00:21:01;100372.44;;;22.23;97.44
10115;BME280;5097;43.260;27.812;2023-07-16T00:23:45;100375.53;;;22.28;97.64
10115;BME280;5097;43.260;27.812;2023-07-16T00:26:29;100375.44;;;22.20;98.18
10115;BME280;5097;43.260;27.812;2023-07-16T00:29:14;100365.56;;;22.10;99.35
10115;BME280;5097;43.260;27.812;2023-07-16T00:31:58;100364.38;;;21.95;100.00
10115;BME280;5097;43.260;27.812;2023-07-16T00:34:42;100361.91;;;22.12;99.11
10115;BME280;5097;43.260;27.812;2023-07-16T00:37:27;100356.28;;;22.23;98.74
10115;BME280;5097;43.260;27.812;2023-07-16T00:40:11;100353.34;;;22.16;99.08
10115;BME280;5097;43.260;27.812;2023-07-16T00:42:56;100354.97;;;22.27;98.89
10115;BME280;5097;43.260;27.812;2023-07-16T00:45:42;100357.91;;;22.16;99.39
10115;BME280;5097;43.260;27.812;2023-07-16T00:48:28;100353.34;;;22.16;99.53
10115;BME280;5097;43.260;27.812;2023-07-16T00:51:13;100359.97;;;21.94;100.00
10115;BME280;5097;43.260;27.812;2023-07-16T00:53:57;100328.91;;;21.82;100.00
10115;BME280;5097;43.260;27.812;2023-07-16T00:56:41;100348.94;;;21.97;100.00
10115;BME280;5097;43.260;27.812;2023-07-16T00:59:25;100346.66;;;22.02;100.00
10115;BME280;5097;43.260;27.812;2023-07-16T01:02:15;100337.28;;;22.06;100.00
10115;BME280;5097;43.260;27.812;2023-07-16T01:04:59;100344.25;;;21.99;100.00
10115;BME280;5097;43.260;27.812;2023-07-16T01:07:57;100312.94;;;21.42;100.00
10115;BME280;5097;43.260;27.812;2023-07-16T01:10:43;100331.66;;;21.34;100.00
10115;BME280;5097;43.260;27.812;2023-07-16T01:13:28;100347.34;;;21.76;100.00
10115;BME280;5097;43.260;27.812;2023-07-16T01:16:19;100339.75;;;21.90;100.00
10115;BME280;5097;43.260;27.812;2023-07-16T01:19:07;100333.63;;;21.98;100.00
10115;BME280;5097;43.260;27.812;2023-07-16T01:21:57;100325.03;;;21.94;100.00
10115;BME280;5097;43.260;27.812;2023-07-16T01:24:59;100313.09;;;21.79;100.00
10115;BME280;5097;43.260;27.812;2023-07-16T01:28:10;100332.00;;;21.87;100.00
10115;BME280;5097;43.260;27.812;2023-07-16T01:31:01;100326.63;;;21.87;100.00
10115;BME280;5097;43.260;27.812;2023-07-16T01:33:46;100317.16;;;22.10;100.00
10115;BME280;5097;43.260;27.812;2023-07-16T01:36:31;100321.34;;;21.95;100.00
10115;BME280;5097;43.260;27.812;2023-07-16T01:39:16;100287.44;;;21.84;100.00
10115;BME280;5097;43.260;27.812;2023-07-16T01:42:00;100299.00;;;22.13;100.00
10115;BME280;5097;43.260;27.812;2023-07-16T01:44:45;100309.75;;;22.13;100.00
10115;BME280;5097;43.260;27.812;2023-07-16T01:47:39;100314.78;;;22.25;100.00
10115;BME280;5097;43.260;27.812;2023-07-16T01:50:25;100309.28;;;21.99;100.00
10115;BME280;5097;43.260;27.812;2023-07-16T01:53:09;100311.94;;;21.81;100.00
10115;BME280;5097;43.260;27.812;2023-07-16T01:55:53;100320.19;;;21.70;100.00
10115;BME280;5097;43.260;27.812;2023-07-16T01:58:37;100318.66;;;21.95;100.00
10115;BME280;5097;43.260;27.812;2023-07-16T02:01:21;100320.69;;;21.83;100.00
10115;BME280;5097;43.260;27.812;2023-07-16T02:04:07;100312.19;;;21.88;100.00
10115;BME280;5097;43.260;27.812;2023-07-16T02:06:50;100317.50;;;21.98;100.00
10115;BME280;5097;43.260;27.812;2023-07-16T02:09:37;100305.13;;;21.87;100.00
10115;BME280;5097;43.260;27.812;2023-07-16T02:12:23;100316.19;;;21.84;100.00
10115;BME280;5097;43.260;27.812;2023-07-16T02:15:07;100316.44;;;21.63;100.00
10115;BME280;5097;43.260;27.812;2023-07-16T02:17:52;100328.81;;;21.73;100.00
10115;BME280;5097;43.260;27.812;2023-07-16T02:20:38;100323.63;;;21.90;100.00
10115;BME280;5097;43.260;27.812;2023-07-16T02:23:21;100322.31;;;21.94;100.00
10115;BME280;5097;43.260;27.812;2023-07-16T02:26:08;100330.31;;;21.86;100.00
10115;BME280;5097;43.260;27.812;2023-07-16T02:28:52;100312.59;;;21.65;100.00
10115;BME280;5097;43.260;27.812;2023-07-16T02:31:37;100319.31;;;21.79;100.00
10115;BME280;5097;43.260;27.812;2023-07-16T02:34:21;100327.84;;;21.74;100.00
10115;BME280;5097;43.260;27.812;2023-07-16T02:37:06;100322.78;;;21.62;100.00
10115;BME280;5097;43.260;27.812;2023-07-16T02:39:51;100206.63;;;21.02;100.00
10115;BME280;5097;43.260;27.812;2023-07-16T02:42:35;100330.56;;;21.92;100.00
10115;BME280;5097;43.260;27.812;2023-07-16T02:45:19;100315.88;;;21.87;100.00
10115;BME280;5097;43.260;27.812;2023-07-16T02:48:04;100313.28;;;21.95;100.00
10115;BME280;5097;43.260;27.812;2023-07-16T02:50:48;100320.69;;;21.83;100.00
10115;BME280;5097;43.260;27.812;2023-07-16T02:53:33;100320.06;;;21.71;100.00
10115;BME280;5097;43.260;27.812;2023-07-16T02:56:17;100329.66;;;21.74;100.00
10115;BME280;5097;43.260;27.812;2023-07-16T02:59:01;100338.72;;;21.35;100.00
10115;BME280;5097;43.260;27.812;2023-07-16T03:01:46;100303.91;;;21.43;100.00
10115;BME280;5097;43.260;27.812;2023-07-16T03:04:30;100322.75;;;21.71;100.00
10115;BME280;5097;43.260;27.812;2023-07-16T03:07:14;100331.84;;;21.88;100.00
10115;BME280;5097;43.260;27.812;2023-07-16T03:10:00;100332.19;;;22.03;100.00
10115;BME280;5097;43.260;27.812;2023-07-16T03:12:44;100312.59;;;22.11;100.00
10115;BME280;5097;43.260;27.812;2023-07-16T03:15:29;100346.94;;;21.99;100.00
10115;BME280;5097;43.260;27.812;2023-07-16T03:18:13;100323.34;;;21.93;100.00
10115;BME280;5097;43.260;27.812;2023-07-16T03:20:57;100309.59;;;21.96;100.00
10115;BME280;5097;43.260;27.812;2023-07-16T03:23:41;100330.75;;;22.09;100.00
10115;BME280;5097;43.260;27.812;2023-07-16T03:26:27;100337.38;;;22.33;100.00
10115;BME280;5097;43.260;27.812;2023-07-16T03:29:10;100335.34;;;22.17;100.00
10115;BME280;5097;43.260;27.812;2023-07-16T03:31:55;100332.84;;;22.33;100.00
10115;BME280;5097;43.260;27.812;2023-07-16T03:34:38;100330.31;;;22.32;100.00
10115;BME280;5097;43.260;27.812;2023-07-16T03:37:22;100332.91;;;22.23;100.00
10115;BME280;5097;43.260;27.812;2023-07-16T03:40:13;100343.81;;;22.22;100.00
10115;BME280;5097;43.260;27.812;2023-07-16T03:43:03;100237.13;;;21.49;100.00
10115;BME280;5097;43.260;27.812;2023-07-16T03:45:49;100328.56;;;22.40;100.00
10115;BME280;5097;43.260;27.812;2023-07-16T03:48:33;100320.19;;;22.43;100.00
10115;BME280;5097;43.260;27.812;2023-07-16T03:51:17;100346.19;;;22.35;100.00
10115;BME280;5097;43.260;27.812;2023-07-16T03:54:01;100340.34;;;22.57;100.00
10115;BME280;5097;43.260;27.812;2023-07-16T03:56:47;100339.41;;;22.67;100.00
10115;BME280;5097;43.260;27.812;2023-07-16T03:59:33;100310.03;;;22.55;100.00
10115;BME280;5097;43.260;27.812;2023-07-16T04:02:17;100336.47;;;22.78;100.00
10115;BME280;5097;43.260;27.812;2023-07-16T04:05:01;100341.47;;;22.91;100.00
10115;BME280;5097;43.260;27.812;2023-07-16T04:07:45;100323.13;;;22.94;100.00
10115;BME280;5097;43.260;27.812;2023-07-16T04:10:29;100354.97;;;23.17;100.00
10115;BME280;5097;43.260;27.812;2023-07-16T04:13:13;100348.16;;;23.31;100.00
10115;BME280;5097;43.260;27.812;2023-07-16T04:15:59;100322.91;;;23.32;100.00
10115;BME280;5097;43.260;27.812;2023-07-16T04:18:43;100355.38;;;23.57;100.00
10115;BME280;5097;43.260;27.812;2023-07-16T04:21:27;100350.19;;;23.98;100.00
10115;BME280;5097;43.260;27.812;2023-07-16T04:24:10;100291.66;;;23.90;98.14
10115;BME280;5097;43.260;27.812;2023-07-16T04:26:54;100359.41;;;24.47;96.78
10115;BME280;5097;43.260;27.812;2023-07-16T04:29:38;100305.41;;;24.30;94.88
10115;BME280;5097;43.260;27.812;2023-07-16T04:32:24;100363.44;;;24.26;96.77
10115;BME280;5097;43.260;27.812;2023-07-16T04:35:08;100357.72;;;24.54;95.96
10115;BME280;5097;43.260;27.812;2023-07-16T04:37:52;100359.78;;;24.85;94.87
10115;BME280;5097;43.260;27.812;2023-07-16T04:40:36;100359.59;;;25.11;93.05
10115;BME280;5097;43.260;27.812;2023-07-16T04:43:20;100360.25;;;25.30;91.10
10115;BME280;5097;43.260;27.812;2023-07-16T04:46:04;100369.22;;;25.38;90.79
10115;BME280;5097;43.260;27.812;2023-07-16T04:48:49;100365.47;;;25.56;89.30
10115;BME280;5097;43.260;27.812;2023-07-16T04:51:33;100370.88;;;25.56;88.33
10115;BME280;5097;43.260;27.812;2023-07-16T04:54:17;100374.16;;;25.74;87.63
10115;BME280;5097;43.260;27.812;2023-07-16T04:57:01;100379.78;;;25.65;87.41
10115;BME280;5097;43.260;27.812;2023-07-16T04:59:45;100375.50;;;25.79;87.38
10115;BME280;5097;43.260;27.812;2023-07-16T05:02:29;100381.41;;;25.82;86.31
10115;BME280;5097;43.260;27.812;2023-07-16T05:05:14;100379.94;;;25.71;85.77
10115;BME280;5097;43.260;27.812;2023-07-16T05:07:58;100389.44;;;25.67;85.34
10115;BME280;5097;43.260;27.812;2023-07-16T05:10:42;100392.75;;;25.86;84.91
10115;BME280;5097;43.260;27.812;2023-07-16T05:13:26;100396.91;;;26.05;84.57
10115;BME280;5097;43.260;27.812;2023-07-16T05:16:10;100393.72;;;25.53;83.00
10115;BME280;5097;43.260;27.812;2023-07-16T05:18:54;100391.66;;;26.12;82.45
10115;BME280;5097;43.260;27.812;2023-07-16T05:21:40;100403.75;;;26.24;82.04
10115;BME280;5097;43.260;27.812;2023-07-16T05:24:24;100396.75;;;25.98;81.58
10115;BME280;5097;43.260;27.812;2023-07-16T05:27:08;100395.72;;;26.07;81.98
10115;BME280;5097;43.260;27.812;2023-07-16T05:29:52;100394.44;;;26.26;82.29
10115;BME280;5097;43.260;27.812;2023-07-16T05:32:36;100394.84;;;26.15;80.68
10115;BME280;5097;43.260;27.812;2023-07-16T05:35:20;100380.44;;;26.23;80.54
10115;BME280;5097;43.260;27.812;2023-07-16T05:38:05;100397.25;;;26.65;79.41
10115;BME280;5097;43.260;27.812;2023-07-16T05:40:49;100406.91;;;26.36;78.61
10115;BME280;5097;43.260;27.812;2023-07-16T05:43:34;100405.34;;;26.41;79.08
10115;BME280;5097;43.260;27.812;2023-07-16T05:46:18;100409.41;;;26.46;76.55
10115;BME280;5097;43.260;27.812;2023-07-16T05:49:02;100409.47;;;26.60;76.58
10115;BME280;5097;43.260;27.812;2023-07-16T05:51:46;100400.31;;;26.62;74.67
10115;BME280;5097;43.260;27.812;2023-07-16T05:54:32;100406.91;;;26.67;74.89
10115;BME280;5097;43.260;27.812;2023-07-16T05:57:16;100417.16;;;26.80;74.65
10115;BME280;5097;43.260;27.812;2023-07-16T06:00:00;100409.69;;;26.82;74.41
10115;BME280;5097;43.260;27.812;2023-07-16T06:02:53;100405.94;;;27.06;73.95
10115;BME280;5097;43.260;27.812;2023-07-16T06:05:37;100415.31;;;27.19;73.62
10115;BME280;5097;43.260;27.812;2023-07-16T06:08:21;100409.28;;;27.08;73.21
10115;BME280;5097;43.260;27.812;2023-07-16T06:11:08;100413.28;;;27.21;69.11
10115;BME280;5097;43.260;27.812;2023-07-16T06:13:53;100409.59;;;27.52;69.43
10115;BME280;5097;43.260;27.812;2023-07-16T06:16:37;100392.50;;;27.66;70.36
10115;BME280;5097;43.260;27.812;2023-07-16T06:19:21;100398.38;;;27.55;67.91
10115;BME280;5097;43.260;27.812;2023-07-16T06:22:05;100404.56;;;27.25;69.58
10115;BME280;5097;43.260;27.812;2023-07-16T06:24:49;100381.66;;;27.28;67.99
10115;BME280;5097;43.260;27.812;2023-07-16T06:27:35;100406.88;;;27.67;66.45
10115;BME280;5097;43.260;27.812;2023-07-16T06:30:19;100397.25;;;27.64;66.30
10115;BME280;5097;43.260;27.812;2023-07-16T06:33:03;100399.75;;;27.81;63.34
10115;BME280;5097;43.260;27.812;2023-07-16T06:35:47;100401.94;;;27.70;64.75
10115;BME280;5097;43.260;27.812;2023-07-16T06:38:31;100400.22;;;27.99;62.02
10115;BME280;5097;43.260;27.812;2023-07-16T06:41:15;100389.00;;;28.02;61.18
10115;BME280;5097;43.260;27.812;2023-07-16T06:44:01;100399.09;;;28.08;62.65
10115;BME280;5097;43.260;27.812;2023-07-16T06:46:45;100398.44;;;27.76;61.60
10115;BME280;5097;43.260;27.812;2023-07-16T06:49:30;100402.66;;;27.94;61.51
10115;BME280;5097;43.260;27.812;2023-07-16T06:52:20;100399.50;;;28.05;60.12
10115;BME280;5097;43.260;27.812;2023-07-16T06:55:05;100411.81;;;28.23;60.54
10115;BME280;5097;43.260;27.812;2023-07-16T06:57:49;100400.44;;;28.34;59.49
10115;BME280;5097;43.260;27.812;2023-07-16T07:00:35;100410.44;;;28.12;57.71
10115;BME280;5097;43.260;27.812;2023-07-16T07:03:19;100396.78;;;28.05;60.34
10115;BME280;5097;43.260;27.812;2023-07-16T07:06:03;100403.47;;;28.24;60.13
10115;BME280;5097;43.260;27.812;2023-07-16T07:08:47;100407.56;;;28.35;56.00
10115;BME280;5097;43.260;27.812;2023-07-16T07:11:32;100371.25;;;28.58;54.06
10115;BME280;5097;43.260;27.812;2023-07-16T07:14:16;100400.38;;;28.86;55.38
10115;BME280;5097;43.260;27.812;2023-07-16T07:17:01;100402.78;;;28.74;53.34
10115;BME280;5097;43.260;27.812;2023-07-16T07:19:45;100405.28;;;28.97;52.72
10115;BME280;5097;43.260;27.812;2023-07-16T07:22:29;100408.28;;;28.81;52.53
10115;BME280;5097;43.260;27.812;2023-07-16T07:25:13;100403.59;;;29.18;52.31
10115;BME280;5097;43.260;27.812;2023-07-16T07:27:58;100399.03;;;29.25;52.73
10115;BME280;5097;43.260;27.812;2023-07-16T07:30:42;100407.59;;;29.22;53.82
10115;BME280;5097;43.260;27.812;2023-07-16T07:33:27;100408.22;;;29.24;53.64
10115;BME280;5097;43.260;27.812;2023-07-16T07:36:11;100413.00;;;29.43;52.61
10115;BME280;5097;43.260;27.812;2023-07-16T07:38:55;100402.50;;;29.34;54.64
10115;BME280;5097;43.260;27.812;2023-07-16T07:41:39;100384.66;;;29.03;53.69
10115;BME280;5097;43.260;27.812;2023-07-16T07:44:23;100398.56;;;29.43;50.56
10115;BME280;5097;43.260;27.812;2023-07-16T07:47:07;100411.00;;;29.59;51.22
10115;BME280;5097;43.260;27.812;2023-07-16T07:49:53;100410.50;;;29.42;51.96
10115;BME280;5097;43.260;27.812;2023-07-16T07:52:37;100411.72;;;29.74;50.80
10115;BME280;5097;43.260;27.812;2023-07-16T07:55:21;100413.34;;;29.97;49.66
10115;BME280;5097;43.260;27.812;2023-07-16T07:58:06;100406.63;;;29.93;51.61
10115;BME280;5097;43.260;27.812;2023-07-16T08:00:50;100402.31;;;30.12;51.59
10115;BME280;5097;43.260;27.812;2023-07-16T08:03:34;100409.75;;;29.90;52.16
10115;BME280;5097;43.260;27.812;2023-07-16T08:06:20;100391.41;;;29.35;54.34
10115;BME280;5097;43.260;27.812;2023-07-16T08:09:04;100407.91;;;29.97;53.72
10115;BME280;5097;43.260;27.812;2023-07-16T08:11:48;100382.16;;;29.65;50.64
10115;BME280;5097;43.260;27.812;2023-07-16T08:14:32;100414.22;;;29.69;52.43
10115;BME280;5097;43.260;27.812;2023-07-16T08:17:16;100413.34;;;29.62;53.86
10115;BME280;5097;43.260;27.812;2023-07-16T08:20:06;100411.44;;;29.98;52.29
10115;BME280;5097;43.260;27.812;2023-07-16T08:22:52;100407.97;;;30.11;52.59
10115;BME280;5097;43.260;27.812;2023-07-16T08:25:36;100421.09;;;30.49;50.08
10115;BME280;5097;43.260;27.812;2023-07-16T08:28:20;100418.53;;;30.40;48.86
10115;BME280;5097;43.260;27.812;2023-07-16T08:31:04;100417.75;;;30.47;45.09
10115;BME280;5097;43.260;27.812;2023-07-16T08:33:48;100425.25;;;30.45;44.33
10115;BME280;5097;43.260;27.812;2023-07-16T08:36:32;100418.94;;;30.37;42.57
10115;BME280;5097;43.260;27.812;2023-07-16T08:39:18;100416.38;;;30.22;44.32
10115;BME280;5097;43.260;27.812;2023-07-16T08:42:06;100408.75;;;30.66;40.21
10115;BME280;5097;43.260;27.812;2023-07-16T08:44:53;100426.41;;;30.77;40.37
10115;BME280;5097;43.260;27.812;2023-07-16T08:47:38;100426.19;;;30.72;38.45
10115;BME280;5097;43.260;27.812;2023-07-16T08:50:22;100421.16;;;30.89;37.01
10115;BME280;5097;43.260;27.812;2023-07-16T08:53:08;100411.97;;;31.03;37.02
10115;BME280;5097;43.260;27.812;2023-07-16T08:55:53;100412.63;;;31.12;36.42
10115;BME280;5097;43.260;27.812;2023-07-16T08:58:40;100408.41;;;31.16;37.18
10115;BME280;5097;43.260;27.812;2023-07-16T09:01:27;100421.38;;;31.01;36.49
10115;BME280;5097;43.260;27.812;2023-07-16T09:04:11;100391.38;;;30.87;36.50
10115;BME280;5097;43.260;27.812;2023-07-16T09:06:55;100412.59;;;31.32;35.30
10115;BME280;5097;43.260;27.812;2023-07-16T09:09:39;100415.72;;;31.42;36.58
10115;BME280;5097;43.260;27.812;2023-07-16T09:12:25;100374.97;;;30.54;36.38
10115;BME280;5097;43.260;27.812;2023-07-16T09:15:10;100412.19;;;31.08;36.05
10115;BME280;5097;43.260;27.812;2023-07-16T09:17:54;100406.06;;;31.47;35.26
10115;BME280;5097;43.260;27.812;2023-07-16T09:20:39;100411.50;;;31.73;34.17
10115;BME280;5097;43.260;27.812;2023-07-16T09:23:27;100400.59;;;31.67;33.63
10115;BME280;5097;43.260;27.812;2023-07-16T09:26:11;100404.94;;;31.88;34.09
10115;BME280;5097;43.260;27.812;2023-07-16T09:28:56;100407.50;;;31.69;33.80
10115;BME280;5097;43.260;27.812;2023-07-16T09:31:52;100410.03;;;31.57;33.66
10115;BME280;5097;43.260;27.812;2023-07-16T09:34:36;100403.56;;;31.38;32.66
10115;BME280;5097;43.260;27.812;2023-07-16T09:37:20;100410.50;;;31.34;33.14
10115;BME280;5097;43.260;27.812;2023-07-16T09:40:06;100411.34;;;31.62;32.82
10115;BME280;5097;43.260;27.812;2023-07-16T09:42:52;100407.72;;;31.68;33.77
10115;BME280;5097;43.260;27.812;2023-07-16T09:45:39;100401.00;;;31.70;32.84
10115;BME280;5097;43.260;27.812;2023-07-16T09:48:23;100409.41;;;31.49;34.42
10115;BME280;5097;43.260;27.812;2023-07-16T09:51:10;100402.31;;;31.34;34.18
10115;BME280;5097;43.260;27.812;2023-07-16T09:53:56;100395.75;;;31.55;33.61
10115;BME280;5097;43.260;27.812;2023-07-16T09:56:44;100388.84;;;31.46;33.81
10115;BME280;5097;43.260;27.812;2023-07-16T09:59:30;100403.91;;;31.82;31.66
10115;BME280;5097;43.260;27.812;2023-07-16T10:02:18;100400.72;;;31.92;31.91
10115;BME280;5097;43.260;27.812;2023-07-16T10:05:11;100398.81;;;31.99;31.55
10115;BME280;5097;43.260;27.812;2023-07-16T10:07:57;100396.31;;;31.91;31.22
10115;BME280;5097;43.260;27.812;2023-07-16T10:10:44;100391.03;;;31.96;31.74
10115;BME280;5097;43.260;27.812;2023-07-16T10:13:33;100386.38;;;32.03;31.19
10115;BME280;5097;43.260;27.812;2023-07-16T10:16:21;100390.97;;;32.09;30.65
10115;BME280;5097;43.260;27.812;2023-07-16T10:19:08;100392.47;;;32.05;32.70
10115;BME280;5097;43.260;27.812;2023-07-16T10:21:51;100397.28;;;32.17;32.06
10115;BME280;5097;43.260;27.812;2023-07-16T10:24:38;100394.56;;;32.10;32.33
10115;BME280;5097;43.260;27.812;2023-07-16T10:27:30;100363.19;;;31.74;34.75
10115;BME280;5097;43.260;27.812;2023-07-16T10:30:14;100395.97;;;31.67;34.69
10115;BME280;5097;43.260;27.812;2023-07-16T10:33:03;100406.16;;;31.92;34.54
10115;BME280;5097;43.260;27.812;2023-07-16T10:35:50;100397.06;;;32.18;34.55
10115;BME280;5097;43.260;27.812;2023-07-16T10:38:40;100379.97;;;31.78;34.76
10115;BME280;5097;43.260;27.812;2023-07-16T10:41:25;100397.16;;;31.91;35.24
10115;BME280;5097;43.260;27.812;2023-07-16T10:44:13;100393.97;;;31.95;36.05
10115;BME280;5097;43.260;27.812;2023-07-16T10:46:57;100391.72;;;31.85;36.08
10115;BME280;5097;43.260;27.812;2023-07-16T10:49:42;100388.00;;;31.66;36.64
10115;BME280;5097;43.260;27.812;2023-07-16T10:52:28;100378.94;;;31.52;36.79
10115;BME280;5097;43.260;27.812;2023-07-16T10:55:12;100393.06;;;31.35;37.55
10115;BME280;5097;43.260;27.812;2023-07-16T10:57:56;100390.97;;;31.37;38.05
10115;BME280;5097;43.260;27.812;2023-07-16T11:00:40;100390.53;;;30.80;37.71
10115;BME280;5097;43.260;27.812;2023-07-16T11:03:24;100395.13;;;30.80;37.96
10115;BME280;5097;43.260;27.812;2023-07-16T11:06:09;100388.47;;;31.09;37.74
10115;BME280;5097;43.260;27.812;2023-07-16T11:09:05;100384.22;;;31.47;37.59
10115;BME280;5097;43.260;27.812;2023-07-16T11:11:50;100377.75;;;31.07;37.86
10115;BME280;5097;43.260;27.812;2023-07-16T11:14:34;100382.38;;;31.14;37.59
10115;BME280;5097;43.260;27.812;2023-07-16T11:17:19;100373.97;;;30.88;38.20
10115;BME280;5097;43.260;27.812;2023-07-16T11:20:08;100366.75;;;30.40;38.26
10115;BME280;5097;43.260;27.812;2023-07-16T11:22:52;100388.06;;;31.12;37.90
10115;BME280;5097;43.260;27.812;2023-07-16T11:25:38;100375.41;;;31.45;37.51
10115;BME280;5097;43.260;27.812;2023-07-16T11:28:22;100387.19;;;31.25;37.41
10115;BME280;5097;43.260;27.812;2023-07-16T11:31:14;100385.72;;;31.16;39.38
10115;BME280;5097;43.260;27.812;2023-07-16T11:34:00;100386.34;;;30.71;40.70
10115;BME280;5097;43.260;27.812;2023-07-16T11:36:44;100392.00;;;30.83;40.37
10115;BME280;5097;43.260;27.812;2023-07-16T11:39:31;100387.59;;;30.82;41.53
10115;BME280;5097;43.260;27.812;2023-07-16T11:42:23;100383.66;;;31.18;40.19
10115;BME280;5097;43.260;27.812;2023-07-16T11:45:15;100374.97;;;31.48;39.30
10115;BME280;5097;43.260;27.812;2023-07-16T11:47:59;100381.69;;;31.52;38.56
10115;BME280;5097;43.260;27.812;2023-07-16T11:50:44;100374.13;;;31.54;39.51
10115;BME280;5097;43.260;27.812;2023-07-16T11:53:28;100375.81;;;31.55;40.95
10115;BME280;5097;43.260;27.812;2023-07-16T11:56:12;100380.63;;;31.53;40.67
10115;BME280;5097;43.260;27.812;2023-07-16T11:58:58;100380.88;;;30.84;41.89
10115;BME280;5097;43.260;27.812;2023-07-16T12:01:42;100321.72;;;30.78;40.66
10115;BME280;5097;43.260;27.812;2023-07-16T12:04:26;100371.66;;;31.32;40.91
10115;BME280;5097;43.260;27.812;2023-07-16T12:07:10;100383.19;;;31.01;41.40
10115;BME280;5097;43.260;27.812;2023-07-16T12:09:54;100363.28;;;31.27;42.33
10115;BME280;5097;43.260;27.812;2023-07-16T12:12:38;100381.53;;;31.06;42.47
10115;BME280;5097;43.260;27.812;2023-07-16T12:15:23;100376.47;;;30.63;41.29
10115;BME280;5097;43.260;27.812;2023-07-16T12:18:07;100379.22;;;31.17;40.94
10115;BME280;5097;43.260;27.812;2023-07-16T12:20:51;100376.91;;;30.87;39.58
10115;BME280;5097;43.260;27.812;2023-07-16T12:23:35;100377.53;;;31.16;40.00
10115;BME280;5097;43.260;27.812;2023-07-16T12:26:20;100353.63;;;30.71;41.49
10115;BME280;5097;43.260;27.812;2023-07-16T12:29:04;100372.03;;;31.49;39.05
10115;BME280;5097;43.260;27.812;2023-07-16T12:31:50;100377.50;;;31.49;39.31
10115;BME280;5097;43.260;27.812;2023-07-16T12:34:34;100382.38;;;31.34;41.09
10115;BME280;5097;43.260;27.812;2023-07-16T12:37:18;100378.16;;;30.91;42.76
10115;BME280;5097;43.260;27.812;2023-07-16T12:40:03;100380.09;;;31.24;41.09
10115;BME280;5097;43.260;27.812;2023-07-16T12:42:47;100381.69;;;31.52;40.46
10115;BME280;5097;43.260;27.812;2023-07-16T12:45:31;100381.78;;;31.97;39.56
10115;BME280;5097;43.260;27.812;2023-07-16T12:48:16;100386.66;;;31.88;39.86
10115;BME280;5097;43.260;27.812;2023-07-16T12:51:00;100360.34;;;31.08;40.35
10115;BME280;5097;43.260;27.812;2023-07-16T12:53:45;100390.06;;;30.50;39.52
10115;BME280;5097;43.260;27.812;2023-07-16T12:56:29;100377.97;;;31.13;40.00
10115;BME280;5097;43.260;27.812;2023-07-16T12:59:15;100360.75;;;30.92;39.92
10115;BME280;5097;43.260;27.812;2023-07-16T13:01:59;100384.88;;;31.35;39.93
10115;BME280;5097;43.260;27.812;2023-07-16T13:04:44;100381.97;;;31.17;40.95
10115;BME280;5097;43.260;27.812;2023-07-16T13:07:29;100390.06;;;31.57;39.49
10115;BME280;5097;43.260;27.812;2023-07-16T13:10:13;100381.28;;;31.48;39.11
10115;BME280;5097;43.260;27.812;2023-07-16T13:13:05;100375.19;;;31.53;40.30
10115;BME280;5097;43.260;27.812;2023-07-16T13:15:50;100378.16;;;30.91;42.37
10115;BME280;5097;43.260;27.812;2023-07-16T13:18:34;100378.78;;;30.86;41.77
10115;BME280;5097;43.260;27.812;2023-07-16T13:21:20;100339.13;;;31.37;39.12
10115;BME280;5097;43.260;27.812;2023-07-16T13:24:04;100377.91;;;31.66;39.61
10115;BME280;5097;43.260;27.812;2023-07-16T13:26:48;100361.72;;;31.58;39.39
10115;BME280;5097;43.260;27.812;2023-07-16T13:29:32;100341.03;;;31.03;39.03
10115;BME280;5097;43.260;27.812;2023-07-16T13:32:16;100344.41;;;31.12;38.22
10115;BME280;5097;43.260;27.812;2023-07-16T13:35:00;100351.00;;;31.70;39.73
10115;BME280;5097;43.260;27.812;2023-07-16T13:37:48;100362.16;;;31.55;39.36
10115;BME280;5097;43.260;27.812;2023-07-16T13:40:33;100352.50;;;31.52;39.20
10115;BME280;5097;43.260;27.812;2023-07-16T13:43:17;100339.56;;;31.07;39.74
10115;BME280;5097;43.260;27.812;2023-07-16T13:46:01;100353.97;;;31.68;38.49
10115;BME280;5097;43.260;27.812;2023-07-16T13:48:45;100350.41;;;32.06;37.88
10115;BME280;5097;43.260;27.812;2023-07-16T13:51:40;100354.72;;;31.89;38.48
10115;BME280;5097;43.260;27.812;2023-07-16T13:54:25;100354.47;;;31.12;37.54
10115;BME280;5097;43.260;27.812;2023-07-16T13:57:09;100355.13;;;31.92;36.67
10115;BME280;5097;43.260;27.812;2023-07-16T13:59:53;100353.28;;;32.89;34.56
10115;BME280;5097;43.260;27.812;2023-07-16T14:02:37;100348.78;;;32.69;37.08
10115;BME280;5097;43.260;27.812;2023-07-16T14:05:21;100351.22;;;32.84;35.53
10115;BME280;5097;43.260;27.812;2023-07-16T14:08:05;100346.03;;;30.93;37.33
10115;BME280;5097;43.260;27.812;2023-07-16T14:10:51;100346.69;;;30.95;40.18
10115;BME280;5097;43.260;27.812;2023-07-16T14:13:35;100345.94;;;31.80;39.24
10115;BME280;5097;43.260;27.812;2023-07-16T14:16:19;100339.69;;;32.12;38.53
10115;BME280;5097;43.260;27.812;2023-07-16T14:19:04;100359.81;;;32.24;36.35
10115;BME280;5097;43.260;27.812;2023-07-16T14:21:48;100340.69;;;31.72;39.28